createdAt,value
2019-03-30T00:01:14.605Z,9.40
2019-03-30T00:03:42.834Z,9.50
2019-03-30T00:06:11.112Z,9.50
2019-03-30T00:08:39.391Z,9.50
2019-03-30T00:11:07.724Z,9.40
2019-03-30T00:13:36.096Z,9.40
2019-03-30T00:16:04.458Z,9.30
2019-03-30T00:18:32.717Z,9.20
2019-03-30T00:21:00.987Z,9.30
2019-03-30T00:23:29.333Z,9.40
2019-03-30T00:25:57.673Z,9.40
2019-03-30T00:28:25.953Z,9.40
2019-03-30T00:30:54.204Z,9.40
2019-03-30T00:33:22.446Z,9.40
2019-03-30T00:35:50.750Z,9.50
2019-03-30T00:38:19.059Z,9.50
2019-03-30T00:40:47.413Z,9.50
2019-03-30T00:43:15.656Z,9.50
2019-03-30T00:45:43.940Z,9.40
2019-03-30T00:48:12.271Z,9.40
2019-03-30T00:50:40.611Z,9.30
2019-03-30T00:53:08.886Z,9.10
2019-03-30T00:55:37.127Z,8.90
2019-03-30T00:58:05.457Z,8.80
2019-03-30T01:00:33.736Z,8.60
2019-03-30T01:03:01.990Z,8.40
2019-03-30T01:05:30.309Z,8.10
2019-03-30T01:07:58.669Z,7.90
2019-03-30T01:10:26.947Z,7.80
2019-03-30T01:12:55.435Z,7.80
2019-03-30T01:15:23.691Z,7.70
2019-03-30T01:17:52.012Z,7.60
2019-03-30T01:20:20.265Z,7.50
2019-03-30T01:22:48.542Z,7.50
2019-03-30T01:25:16.834Z,7.40
2019-03-30T01:27:45.070Z,7.40
2019-03-30T01:30:22.888Z,7.40
2019-03-30T01:32:43.406Z,7.70
2019-03-30T01:35:11.679Z,7.80
2019-03-30T01:37:39.982Z,7.90
2019-03-30T01:40:08.290Z,8.00
2019-03-30T01:42:36.573Z,8.10
2019-03-30T01:45:09.218Z,8.20
2019-03-30T01:47:37.543Z,8.20
2019-03-30T01:50:17.230Z,8.30
2019-03-30T01:52:38.079Z,8.30
2019-03-30T01:55:07.592Z,8.40
2019-03-30T01:57:35.898Z,8.40
2019-03-30T02:00:08.211Z,8.40
2019-03-30T02:02:36.622Z,8.40
2019-03-30T02:05:06.219Z,8.40
2019-03-30T02:07:34.456Z,8.40
2019-03-30T02:10:02.897Z,8.40
2019-03-30T02:12:31.227Z,8.40
2019-03-30T02:14:59.455Z,8.30
2019-03-30T02:17:27.783Z,8.20
2019-03-30T02:19:56.065Z,8.20
2019-03-30T02:22:24.351Z,8.20
2019-03-30T02:24:52.617Z,8.30
2019-03-30T02:27:20.918Z,8.20
2019-03-30T02:29:49.192Z,8.20
2019-03-30T02:32:17.461Z,8.10
2019-03-30T02:34:45.689Z,7.90
2019-03-30T02:37:14.200Z,7.80
2019-03-30T02:39:42.474Z,7.70
2019-03-30T02:42:10.735Z,7.80
2019-03-30T02:44:38.989Z,7.90
2019-03-30T02:47:07.345Z,7.90
2019-03-30T02:49:35.634Z,7.90
2019-03-30T02:52:03.887Z,7.70
2019-03-30T02:54:32.203Z,7.50
2019-03-30T02:57:02.492Z,7.30
2019-03-30T02:59:30.741Z,7.10
2019-03-30T03:01:59.001Z,7.10
2019-03-30T03:04:27.275Z,7.10
2019-03-30T03:06:55.607Z,7.20
2019-03-30T03:09:23.918Z,7.30
2019-03-30T03:11:52.179Z,7.40
2019-03-30T03:14:20.452Z,7.40
2019-03-30T03:16:48.715Z,7.40
2019-03-30T03:19:17.165Z,7.30
2019-03-30T03:21:45.530Z,7.00
2019-03-30T03:24:13.777Z,6.70
2019-03-30T03:26:42.013Z,6.80
2019-03-30T03:29:10.350Z,7.00
2019-03-30T03:31:38.609Z,7.00
2019-03-30T03:34:06.867Z,6.90
2019-03-30T03:36:35.224Z,6.70
2019-03-30T03:39:04.589Z,6.60
2019-03-30T03:41:32.837Z,6.50
2019-03-30T03:44:01.100Z,6.40
2019-03-30T03:46:29.356Z,6.20
2019-03-30T03:48:57.613Z,6.00
2019-03-30T03:51:26.773Z,5.80
2019-03-30T03:53:55.223Z,5.90
2019-03-30T03:56:23.538Z,6.00
2019-03-30T03:58:51.828Z,6.10
2019-03-30T04:01:20.456Z,6.20
2019-03-30T04:03:48.723Z,6.40
2019-03-30T04:06:16.982Z,6.50
2019-03-30T04:08:45.246Z,6.60
2019-03-30T04:11:14.060Z,6.70
2019-03-30T04:13:42.358Z,6.70
2019-03-30T04:16:10.604Z,6.70
2019-03-30T04:18:38.872Z,6.70
2019-03-30T04:21:07.123Z,6.70
2019-03-30T04:23:35.408Z,6.80
2019-03-30T04:26:03.731Z,6.90
2019-03-30T04:28:31.994Z,6.70
2019-03-30T04:31:00.258Z,6.50
2019-03-30T04:33:28.592Z,6.50
2019-03-30T04:35:56.875Z,6.40
2019-03-30T04:38:25.130Z,6.40
2019-03-30T04:40:53.392Z,6.40
2019-03-30T04:43:21.735Z,6.40
2019-03-30T04:45:50.018Z,6.40
2019-03-30T04:48:18.363Z,6.40
2019-03-30T04:50:46.598Z,6.40
2019-03-30T04:53:14.942Z,6.50
2019-03-30T04:55:43.180Z,6.60
2019-03-30T04:58:11.432Z,6.70
2019-03-30T05:00:39.692Z,6.70
2019-03-30T05:03:07.959Z,6.70
2019-03-30T05:05:36.242Z,6.60
2019-03-30T05:08:04.484Z,6.60
2019-03-30T05:10:32.733Z,6.60
2019-03-30T05:13:00.987Z,6.60
2019-03-30T05:15:29.258Z,6.60
2019-03-30T05:17:57.522Z,6.60
2019-03-30T05:20:25.780Z,6.60
2019-03-30T05:22:54.014Z,6.70
2019-03-30T05:25:22.284Z,6.60
2019-03-30T05:27:50.557Z,6.50
2019-03-30T05:30:18.800Z,6.40
2019-03-30T05:32:47.035Z,6.30
2019-03-30T05:35:15.328Z,6.20
2019-03-30T05:37:43.590Z,6.30
2019-03-30T05:40:11.827Z,6.30
2019-03-30T05:42:40.162Z,6.30
2019-03-30T05:45:08.500Z,6.40
2019-03-30T05:47:36.750Z,6.40
2019-03-30T05:50:07.754Z,6.40
2019-03-30T05:52:36.008Z,6.50
2019-03-30T05:55:04.372Z,6.40
2019-03-30T05:57:32.800Z,6.30
2019-03-30T06:00:01.109Z,6.20
2019-03-30T06:02:29.358Z,6.10
2019-03-30T06:04:58.649Z,6.10
2019-03-30T06:07:27.310Z,6.10
2019-03-30T06:09:55.571Z,6.20
2019-03-30T06:12:23.885Z,6.20
2019-03-30T06:14:52.250Z,6.30
2019-03-30T06:17:20.512Z,6.30
2019-03-30T06:19:48.800Z,6.30
2019-03-30T06:22:17.054Z,6.30
2019-03-30T06:24:45.299Z,6.50
2019-03-30T06:27:13.551Z,6.40
2019-03-30T06:29:41.820Z,6.50
2019-03-30T06:32:10.062Z,6.70
2019-03-30T06:34:38.309Z,6.80
2019-03-30T06:37:06.610Z,6.90
2019-03-30T06:39:37.004Z,7.00
2019-03-30T06:42:04.831Z,7.10
2019-03-30T06:44:33.072Z,7.10
2019-03-30T06:47:01.332Z,7.00
2019-03-30T06:49:29.585Z,7.00
2019-03-30T06:51:57.865Z,7.00
2019-03-30T06:54:26.298Z,7.00
2019-03-30T06:56:54.601Z,7.10
2019-03-30T06:59:22.969Z,7.10
2019-03-30T07:01:51.253Z,7.20
2019-03-30T07:04:19.533Z,7.20
2019-03-30T07:06:49.543Z,7.40
2019-03-30T07:09:18.829Z,7.50
2019-03-30T07:11:47.176Z,7.70
2019-03-30T07:14:15.486Z,7.80
2019-03-30T07:16:43.790Z,7.90
2019-03-30T07:19:12.110Z,8.00
2019-03-30T07:21:40.663Z,8.20
2019-03-30T07:24:09.031Z,8.20
2019-03-30T07:26:37.325Z,8.30
2019-03-30T07:29:06.970Z,8.50
2019-03-30T07:31:35.176Z,8.60
2019-03-30T07:34:03.534Z,8.70
2019-03-30T07:36:31.847Z,8.80
2019-03-30T07:39:00.255Z,8.90
2019-03-30T07:41:28.732Z,9.00
2019-03-30T07:43:56.982Z,9.10
2019-03-30T07:46:25.268Z,9.10
2019-03-30T07:48:53.558Z,9.30
2019-03-30T07:51:21.920Z,9.40
2019-03-30T07:53:50.309Z,9.50
2019-03-30T07:56:18.700Z,9.60
2019-03-30T07:58:47.011Z,9.70
2019-03-30T08:01:15.277Z,9.80
2019-03-30T08:03:43.556Z,9.90
2019-03-30T08:06:11.931Z,10.00
2019-03-30T08:08:40.209Z,10.10
2019-03-30T08:11:08.453Z,10.20
2019-03-30T08:13:36.776Z,10.30
2019-03-30T08:16:05.115Z,10.50
2019-03-30T08:18:33.352Z,10.50
2019-03-30T08:21:02.563Z,10.60
2019-03-30T08:23:40.142Z,10.70
2019-03-30T08:26:07.051Z,10.80
2019-03-30T08:28:35.436Z,10.90
2019-03-30T08:31:03.778Z,11.00
2019-03-30T08:36:32.832Z,11.20
2019-03-30T08:39:01.117Z,11.40
2019-03-30T08:41:29.385Z,11.50
2019-03-30T08:43:57.670Z,11.60
2019-03-30T08:46:25.923Z,11.70
2019-03-30T08:48:54.230Z,11.80
2019-03-30T08:51:22.499Z,11.90
2019-03-30T08:53:54.805Z,12.10
2019-03-30T08:56:20.851Z,12.20
2019-03-30T08:58:52.333Z,12.20
2019-03-30T09:01:22.326Z,12.30
2019-03-30T09:03:50.653Z,12.50
2019-03-30T09:06:18.952Z,12.60
2019-03-30T09:08:47.214Z,12.70
2019-03-30T09:11:18.442Z,12.70
2019-03-30T09:13:46.737Z,12.80
2019-03-30T09:16:16.631Z,12.90
2019-03-30T09:18:44.904Z,13.00
2019-03-30T09:21:16.144Z,13.20
2019-03-30T09:23:44.564Z,13.30
2019-03-30T09:26:16.409Z,13.40
2019-03-30T09:28:44.328Z,13.60
2019-03-30T09:31:12.740Z,13.70
2019-03-30T09:33:40.995Z,13.70
2019-03-30T09:36:09.258Z,13.80
2019-03-30T09:38:37.558Z,13.90
2019-03-30T09:41:07.425Z,14.00
2019-03-30T09:43:37.500Z,14.00
2019-03-30T09:46:05.720Z,14.20
2019-03-30T09:48:34.061Z,14.30
2019-03-30T09:51:02.486Z,14.40
2019-03-30T09:53:30.745Z,14.50
2019-03-30T09:56:00.653Z,14.60
2019-03-30T09:58:28.921Z,14.70
2019-03-30T10:00:57.611Z,14.80
2019-03-30T10:03:25.867Z,15.00
2019-03-30T10:08:41.731Z,15.30
2019-03-30T10:11:09.974Z,15.40
2019-03-30T10:13:41.442Z,15.50
2019-03-30T10:16:09.795Z,15.60
2019-03-30T10:18:41.033Z,15.80
2019-03-30T10:21:09.266Z,15.90
2019-03-30T10:23:37.537Z,16.00
2019-03-30T10:26:05.803Z,16.20
2019-03-30T10:28:35.724Z,16.40
2019-03-30T10:31:04.097Z,16.60
2019-03-30T10:33:32.419Z,16.70
2019-03-30T10:36:00.686Z,16.90
2019-03-30T10:38:28.918Z,17.00
2019-03-30T10:40:57.366Z,17.20
2019-03-30T10:43:25.687Z,17.30
2019-03-30T10:45:56.933Z,17.50
2019-03-30T10:48:25.208Z,17.50
2019-03-30T10:53:21.596Z,17.90
2019-03-30T10:55:49.942Z,18.10
2019-03-30T10:58:18.203Z,18.30
2019-03-30T11:00:48.100Z,18.40
2019-03-30T11:03:16.349Z,18.60
2019-03-30T11:05:44.776Z,18.80
2019-03-30T11:08:13.098Z,19.00
2019-03-30T11:10:44.372Z,19.20
2019-03-30T11:13:12.637Z,19.40
2019-03-30T11:15:41.003Z,19.60
2019-03-30T11:18:09.423Z,19.80
2019-03-30T11:20:40.161Z,20.00
2019-03-30T11:23:08.416Z,20.20
2019-03-30T11:25:36.691Z,20.40
2019-03-30T11:28:05.183Z,20.70
2019-03-30T11:30:33.457Z,20.90
2019-03-30T11:33:04.648Z,20.90
2019-03-30T11:35:34.155Z,21.10
2019-03-30T11:38:02.427Z,21.30
2019-03-30T11:40:30.784Z,21.60
2019-03-30T11:42:59.115Z,21.80
2019-03-30T11:45:27.395Z,22.10
2019-03-30T11:47:55.644Z,22.20
2019-03-30T11:50:23.914Z,22.30
2019-03-30T11:52:52.878Z,22.40
2019-03-30T11:55:22.497Z,22.40
2019-03-30T11:57:51.084Z,22.60
2019-03-30T12:00:19.456Z,22.80
2019-03-30T12:02:47.715Z,23.00
2019-03-30T12:05:16.094Z,23.10
2019-03-30T12:07:44.347Z,23.20
2019-03-30T12:10:12.583Z,23.60
2019-03-30T12:12:41.028Z,24.00
2019-03-30T12:15:09.354Z,24.30
2019-03-30T12:17:40.809Z,24.60
2019-03-30T12:20:10.608Z,24.90
2019-03-30T12:22:38.908Z,25.20
2019-03-30T12:25:07.159Z,25.50
2019-03-30T12:27:35.433Z,25.60
2019-03-30T12:30:05.791Z,25.70
2019-03-30T12:32:34.051Z,25.90
2019-03-30T12:35:02.310Z,26.10
2019-03-30T12:37:30.579Z,26.40
2019-03-30T12:39:59.132Z,26.60
2019-03-30T12:42:27.468Z,26.90
2019-03-30T12:44:57.484Z,27.20
2019-03-30T12:47:25.797Z,27.40
2019-03-30T12:49:54.050Z,27.90
2019-03-30T12:52:22.303Z,28.10
2019-03-30T12:54:50.624Z,28.10
2019-03-30T12:57:19.007Z,28.40
2019-03-30T12:59:47.290Z,28.60
2019-03-30T13:02:16.114Z,28.60
2019-03-30T13:04:44.393Z,28.60
2019-03-30T13:07:12.705Z,28.70
2019-03-30T13:09:40.956Z,28.90
2019-03-30T13:12:09.219Z,29.00
2019-03-30T13:14:37.483Z,29.10
2019-03-30T13:17:05.908Z,29.10
2019-03-30T13:19:35.869Z,29.40
2019-03-30T13:22:05.291Z,29.80
2019-03-30T13:24:35.181Z,30.00
2019-03-30T13:27:03.507Z,30.20
2019-03-30T13:29:34.665Z,30.30
2019-03-30T13:32:03.081Z,30.50
2019-03-30T13:34:31.327Z,30.60
2019-03-30T13:37:09.046Z,30.80
2019-03-30T13:39:37.534Z,30.90
2019-03-30T13:42:05.886Z,31.10
2019-03-30T13:44:35.771Z,31.20
2019-03-30T13:47:04.041Z,31.30
2019-03-30T13:49:36.667Z,31.40
2019-03-30T13:52:02.305Z,31.60
2019-03-30T13:54:33.623Z,31.80
2019-03-30T13:57:01.919Z,31.90
2019-03-30T14:02:17.647Z,32.00
2019-03-30T14:04:45.936Z,32.10
2019-03-30T14:07:18.848Z,32.10
2019-03-30T14:09:47.255Z,32.10
2019-03-30T14:12:18.496Z,32.00
2019-03-30T14:14:46.855Z,32.00
2019-03-30T14:17:15.108Z,32.10
2019-03-30T14:19:46.052Z,32.20
2019-03-30T14:22:14.309Z,32.10
2019-03-30T14:24:42.689Z,32.10
2019-03-30T14:27:10.957Z,32.00
2019-03-30T14:29:39.272Z,31.90
2019-03-30T14:32:07.687Z,31.90
2019-03-30T14:34:36.000Z,32.00
2019-03-30T14:37:07.270Z,31.90
2019-03-30T14:39:35.532Z,32.00
2019-03-30T14:42:03.791Z,31.90
2019-03-30T14:44:32.040Z,31.70
2019-03-30T14:47:00.435Z,31.70
2019-03-30T14:49:28.817Z,31.60
2019-03-30T14:51:58.785Z,31.40
2019-03-30T14:54:27.054Z,31.40
2019-03-30T14:56:56.648Z,31.30
2019-03-30T14:59:24.962Z,31.30
2019-03-30T15:01:53.669Z,31.30
2019-03-30T15:04:22.041Z,31.20
2019-03-30T15:06:53.612Z,31.10
2019-03-30T15:09:21.204Z,31.00
2019-03-30T15:11:49.663Z,31.00
2019-03-30T15:14:17.950Z,31.00
2019-03-30T15:16:47.703Z,30.80
2019-03-30T15:19:15.942Z,30.70
2019-03-30T15:21:47.099Z,30.70
2019-03-30T15:24:15.364Z,30.50
2019-03-30T15:26:43.899Z,30.20
2019-03-30T15:29:12.138Z,30.00
2019-03-30T15:31:41.852Z,29.80
2019-03-30T15:34:16.592Z,29.50
2019-03-30T15:36:44.848Z,29.30
2019-03-30T15:39:13.103Z,29.10
2019-03-30T15:41:41.373Z,28.70
2019-03-30T15:44:09.638Z,28.30
2019-03-30T15:46:39.557Z,27.90
2019-03-30T15:49:09.705Z,27.70
2019-03-30T15:51:37.825Z,27.30
2019-03-30T15:54:06.124Z,27.00
2019-03-30T15:56:37.345Z,26.70
2019-03-30T15:59:05.602Z,26.40
2019-03-30T16:01:33.838Z,26.00
2019-03-30T16:04:02.646Z,25.70
2019-03-30T16:06:32.807Z,25.50
2019-03-30T16:09:01.048Z,25.20
2019-03-30T16:11:29.332Z,25.10
2019-03-30T16:13:57.589Z,24.80
2019-03-30T16:16:25.851Z,24.60
2019-03-30T16:18:54.118Z,24.50
2019-03-30T16:21:22.370Z,24.30
2019-03-30T16:23:50.684Z,24.20
2019-03-30T16:26:19.148Z,24.00
2019-03-30T16:28:47.395Z,23.80
2019-03-30T16:31:15.675Z,23.70
2019-03-30T16:33:46.765Z,23.50
2019-03-30T16:36:14.222Z,23.40
2019-03-30T16:38:42.492Z,23.20
2019-03-30T16:41:10.768Z,23.10
2019-03-30T16:43:40.980Z,22.90
2019-03-30T16:46:09.222Z,22.70
2019-03-30T16:51:24.918Z,22.50
2019-03-30T16:53:53.226Z,22.40
2019-03-30T16:56:23.341Z,22.30
2019-03-30T16:58:51.601Z,22.20
2019-03-30T17:01:19.889Z,22.00
2019-03-30T17:03:48.166Z,21.90
2019-03-30T17:06:16.477Z,21.80
2019-03-30T17:08:44.815Z,21.60
2019-03-30T17:11:13.072Z,21.50
2019-03-30T17:13:41.357Z,21.40
2019-03-30T17:16:09.632Z,21.40
2019-03-30T17:18:37.900Z,21.30
2019-03-30T17:21:06.388Z,21.20
2019-03-30T17:23:37.782Z,21.10
2019-03-30T17:26:06.115Z,21.00
2019-03-30T17:28:35.441Z,20.90
2019-03-30T17:31:03.769Z,20.80
2019-03-30T17:33:32.071Z,20.60
2019-03-30T17:36:00.317Z,20.60
2019-03-30T17:38:28.672Z,20.40
2019-03-30T17:40:56.999Z,20.30
2019-03-30T17:43:25.274Z,20.20
2019-03-30T17:45:55.195Z,20.10
2019-03-30T17:48:23.528Z,20.00
2019-03-30T17:50:51.790Z,19.90
2019-03-30T17:53:20.084Z,19.80
2019-03-30T17:55:50.113Z,19.70
2019-03-30T17:58:18.506Z,19.70
2019-03-30T18:00:50.395Z,19.60
2019-03-30T18:03:18.685Z,19.50
2019-03-30T18:05:48.573Z,19.40
2019-03-30T18:08:16.867Z,19.30
2019-03-30T18:10:46.832Z,19.20
2019-03-30T18:13:15.172Z,19.20
2019-03-30T18:15:46.207Z,19.10
2019-03-30T18:18:14.544Z,19.00
2019-03-30T18:20:42.895Z,18.90
2019-03-30T18:23:11.221Z,18.90
2019-03-30T18:25:39.655Z,18.80
2019-03-30T18:28:07.905Z,18.70
2019-03-30T18:30:38.683Z,18.70
2019-03-30T18:33:06.945Z,18.60
2019-03-30T18:35:38.391Z,18.60
2019-03-30T18:38:06.671Z,18.50
2019-03-30T18:40:34.983Z,18.40
2019-03-30T18:43:10.081Z,18.40
2019-03-30T18:45:37.395Z,18.30
2019-03-30T18:48:14.035Z,18.20
2019-03-30T18:50:44.070Z,18.20
2019-03-30T18:53:19.381Z,18.10
2019-03-30T18:55:46.695Z,18.00
2019-03-30T18:58:18.508Z,17.90
2019-03-30T19:00:46.820Z,17.90
2019-03-30T19:03:19.987Z,17.80
2019-03-30T19:05:49.757Z,17.70
2019-03-30T19:08:18.130Z,17.60
2019-03-30T19:10:46.388Z,17.60
2019-03-30T19:13:14.709Z,17.50
2019-03-30T19:15:46.378Z,17.40
2019-03-30T19:18:14.786Z,17.30
2019-03-30T19:20:43.201Z,17.20
2019-03-30T19:23:13.087Z,17.20
2019-03-30T19:25:45.779Z,17.10
2019-03-30T19:28:15.793Z,17.00
2019-03-30T19:30:44.062Z,16.90
2019-03-30T19:33:17.151Z,16.90
2019-03-30T19:35:46.744Z,16.80
2019-03-30T19:38:15.031Z,16.80
2019-03-30T19:40:45.375Z,16.70
2019-03-30T19:43:22.709Z,16.60
2019-03-30T19:45:51.064Z,16.50
2019-03-30T19:48:19.320Z,16.50
2019-03-30T19:50:47.679Z,16.50
2019-03-30T19:56:03.665Z,16.40
2019-03-30T19:58:31.917Z,16.40
2019-03-30T20:01:00.273Z,16.40
2019-03-30T20:03:28.603Z,16.30
2019-03-30T20:05:57.050Z,16.30
2019-03-30T20:08:25.331Z,16.30
2019-03-30T20:10:53.576Z,16.20
2019-03-30T20:13:21.920Z,16.20
2019-03-30T20:15:50.237Z,16.20
2019-03-30T20:18:20.109Z,16.10
2019-03-30T20:20:48.375Z,16.00
2019-03-30T20:23:18.751Z,16.00
2019-03-30T20:25:47.055Z,16.00
2019-03-30T20:28:15.425Z,15.90
2019-03-30T20:30:43.682Z,15.90
2019-03-30T20:33:13.585Z,15.80
2019-03-30T20:35:41.832Z,15.70
2019-03-30T20:38:10.299Z,15.70
2019-03-30T20:40:38.583Z,15.70
2019-03-30T20:43:06.827Z,15.60
2019-03-30T20:45:35.093Z,15.60
2019-03-30T20:48:03.359Z,15.50
2019-03-30T20:50:31.647Z,15.50
2019-03-30T20:52:59.879Z,15.40
2019-03-30T20:55:28.163Z,15.30
2019-03-30T20:57:56.411Z,15.20
2019-03-30T21:00:26.290Z,15.10
2019-03-30T21:02:54.579Z,15.00
2019-03-30T21:05:22.851Z,15.10
2019-03-30T21:07:51.119Z,15.00
2019-03-30T21:10:19.407Z,15.00
2019-03-30T21:12:47.665Z,14.90
2019-03-30T21:15:19.101Z,14.90
2019-03-30T21:17:47.370Z,14.90
2019-03-30T21:20:15.646Z,14.80
2019-03-30T21:22:45.552Z,14.80
2019-03-30T21:25:13.796Z,14.80
2019-03-30T21:27:43.739Z,14.70
2019-03-30T21:30:12.060Z,14.70
2019-03-30T21:32:42.069Z,14.60
2019-03-30T21:35:10.330Z,14.50
2019-03-30T21:37:38.583Z,14.50
2019-03-30T21:40:06.922Z,14.40
2019-03-30T21:42:37.392Z,14.40
2019-03-30T21:45:07.199Z,14.30
2019-03-30T21:47:35.492Z,14.20
2019-03-30T21:50:05.133Z,14.20
2019-03-30T21:52:35.062Z,14.10
2019-03-30T21:55:03.455Z,14.10
2019-03-30T21:57:31.699Z,14.00
2019-03-30T22:00:09.752Z,14.00
2019-03-30T22:02:31.568Z,13.90
2019-03-30T22:04:59.854Z,13.90
2019-03-30T22:07:30.793Z,13.90
2019-03-30T22:09:59.077Z,13.80
2019-03-30T22:12:27.386Z,13.80
2019-03-30T22:14:55.672Z,13.70
2019-03-30T22:17:25.652Z,13.70
2019-03-30T22:19:53.932Z,13.60
2019-03-30T22:22:22.251Z,13.40
2019-03-30T22:24:50.499Z,13.30
2019-03-30T22:27:20.420Z,13.40
2019-03-30T22:29:48.691Z,13.30
2019-03-30T22:32:16.935Z,13.20
2019-03-30T22:34:45.205Z,13.20
2019-03-30T22:37:13.482Z,13.30
2019-03-30T22:39:43.365Z,13.30
2019-03-30T22:42:11.650Z,13.20
2019-03-30T22:44:39.909Z,13.20
2019-03-30T22:47:08.171Z,13.10
2019-03-30T22:49:36.552Z,13.00
2019-03-30T22:52:04.917Z,12.90
2019-03-30T22:54:33.242Z,12.90
2019-03-30T22:57:03.151Z,13.00
2019-03-30T22:59:31.407Z,12.90
2019-03-30T23:01:59.701Z,12.80
2019-03-30T23:04:32.863Z,12.80
2019-03-30T23:06:57.922Z,12.70
2019-03-30T23:09:26.164Z,12.60
2019-03-30T23:11:57.718Z,12.60
2019-03-30T23:14:27.056Z,12.50
2019-03-30T23:16:55.290Z,12.40
2019-03-30T23:19:23.644Z,12.30
2019-03-30T23:21:51.902Z,12.20
2019-03-30T23:24:20.155Z,12.20
2019-03-30T23:26:48.513Z,12.20
2019-03-30T23:29:16.786Z,12.20
2019-03-30T23:31:47.960Z,12.30
2019-03-30T23:34:16.234Z,12.30
2019-03-30T23:36:46.371Z,12.30
2019-03-30T23:39:14.652Z,12.20
2019-03-30T23:41:43.025Z,12.20
2019-03-30T23:44:11.291Z,12.20
2019-03-30T23:46:39.681Z,12.10
2019-03-30T23:49:08.019Z,12.10
2019-03-30T23:51:36.374Z,12.00
2019-03-30T23:54:04.627Z,12.00
2019-03-30T23:56:32.914Z,12.00
2019-03-30T23:59:01.156Z,11.90
